Аэропорт: Гянджа. Гянджа

ICAO: UBBG

METAR:
2021-01-20 02:30:00
UBBG 200230Z 32004KT 9999 BKN083 00/M03 Q1018 R30/290060 NOSIG
METAR:
2021-01-19 23:00:00
TAF UBBG 192300Z 2000/2024 22006KT 6000 SCT010 OVC040 TX04/2011Z TNM01/2002Z TEMPO 2001/2005 VRB04KT -SN OVC007 BECMG 2009/2011 21012KT SCT035 BKN070